sensor_id;sensor_type;location;lat;lon;timestamp;pressure;altitude;pressure_sealevel;temperature;humidity
26915;BME280;14480;52.608;13.416;2023-07-20T10:04:04;145287.72;;;5.31;100.00
26915;BME280;14480;52.608;13.416;2023-07-20T10:09:10;145306.47;;;5.39;100.00
26915;BME280;14480;52.608;13.416;2023-07-20T10:14:19;145402.69;;;5.78;97.55
26915;BME280;14480;52.608;13.416;2023-07-20T10:19:25;145449.03;;;5.97;94.83
26915;BME280;14480;52.608;13.416;2023-07-20T10:24:32;145596.56;;;6.57;100.00
26915;BME280;14480;52.608;13.416;2023-07-20T10:29:37;145776.78;;;7.30;92.00
26915;BME280;14480;52.608;13.416;2023-07-20T10:34:42;145860.66;;;7.64;89.20
26915;BME280;14480;52.608;13.416;2023-07-20T10:39:46;145869.38;;;7.68;93.58
26915;BME280;14480;52.608;13.416;2023-07-20T10:44:50;145865.66;;;7.66;89.11
26915;BME280;14480;52.608;13.416;2023-07-20T10:49:59;145908.19;;;7.83;99.65
26915;BME280;14480;52.608;13.416;2023-07-20T10:55:10;145911.94;;;7.85;95.94
26915;BME280;14480;52.608;13.416;2023-07-20T11:00:14;145918.22;;;7.87;90.02
26915;BME280;14480;52.608;13.416;2023-07-20T11:10:46;145940.72;;;7.97;85.55
26915;BME280;14480;52.608;13.416;2023-07-20T11:16:01;146046.00;;;8.39;85.24
26915;BME280;14480;52.608;13.416;2023-07-20T11:21:08;145921.97;;;7.89;77.96
26915;BME280;14480;52.608;13.416;2023-07-20T11:26:14;145675.41;;;6.89;82.07
26915;BME280;14480;52.608;13.416;2023-07-20T11:31:17;145580.34;;;6.50;83.82
26915;BME280;14480;52.608;13.416;2023-07-20T11:36:21;145327.75;;;5.47;89.66
26915;BME280;14480;52.608;13.416;2023-07-20T11:41:34;145313.97;;;5.42;87.76
26915;BME280;14480;52.608;13.416;2023-07-20T11:46:38;145331.47;;;5.49;89.05
26915;BME280;14480;52.608;13.416;2023-07-20T11:51:42;145377.75;;;5.68;93.39
26915;BME280;14480;52.608;13.416;2023-07-20T11:56:49;145349.00;;;5.56;100.00
26915;BME280;14480;52.608;13.416;2023-07-20T12:01:56;145332.72;;;5.49;100.00
26915;BME280;14480;52.608;13.416;2023-07-20T12:07:00;145379.00;;;5.68;100.00
26915;BME280;14480;52.608;13.416;2023-07-20T12:12:11;145391.47;;;5.73;100.00
26915;BME280;14480;52.608;13.416;2023-07-20T12:17:14;145390.22;;;5.73;100.00
26915;BME280;14480;52.608;13.416;2023-07-20T12:22:20;145366.47;;;5.63;100.00
26915;BME280;14480;52.608;13.416;2023-07-20T12:27:30;145338.97;;;5.52;100.00
26915;BME280;14480;52.608;13.416;2023-07-20T12:32:39;145351.50;;;5.57;100.00
26915;BME280;14480;52.608;13.416;2023-07-20T12:37:43;145406.50;;;5.79;100.00
26915;BME280;14480;52.608;13.416;2023-07-20T12:42:48;145431.47;;;5.90;97.97
26915;BME280;14480;52.608;13.416;2023-07-20T12:47:52;145421.47;;;5.85;99.74
26915;BME280;14480;52.608;13.416;2023-07-20T12:53:01;145444.03;;;5.95;96.18
26915;BME280;14480;52.608;13.416;2023-07-20T12:58:09;145445.28;;;5.95;94.99
26915;BME280;14480;52.608;13.416;2023-07-20T13:03:15;145450.28;;;5.97;89.27
26915;BME280;14480;52.608;13.416;2023-07-20T13:08:24;145472.78;;;6.06;85.34
26915;BME280;14480;52.608;13.416;2023-07-20T13:13:30;145466.53;;;6.04;76.99
26915;BME280;14480;52.608;13.416;2023-07-20T13:18:37;145455.25;;;5.99;81.62
26915;BME280;14480;52.608;13.416;2023-07-20T13:23:40;145520.31;;;6.26;81.34
26915;BME280;14480;52.608;13.416;2023-07-20T13:28:47;145559.06;;;6.41;73.32
26915;BME280;14480;52.608;13.416;2023-07-20T13:33:51;145575.31;;;6.48;72.26
26915;BME280;14480;52.608;13.416;2023-07-20T13:39:01;145560.31;;;6.42;70.01
26915;BME280;14480;52.608;13.416;2023-07-20T13:44:08;145700.44;;;6.99;71.38
26915;BME280;14480;52.608;13.416;2023-07-20T13:49:15;145731.72;;;7.12;70.88
26915;BME280;14480;52.608;13.416;2023-07-20T13:54:27;145724.22;;;7.09;67.63
26915;BME280;14480;52.608;13.416;2023-07-20T13:59:31;145771.72;;;7.28;66.94
26915;BME280;14480;52.608;13.416;2023-07-20T14:04:37;145701.69;;;6.99;63.83
26915;BME280;14480;52.608;13.416;2023-07-20T14:09:41;145552.81;;;6.39;65.15
26915;BME280;14480;52.608;13.416;2023-07-20T14:14:49;145479.03;;;6.09;65.89
26915;BME280;14480;52.608;13.416;2023-07-20T14:19:52;145393.97;;;5.74;66.98
26915;BME280;14480;52.608;13.416;2023-07-20T14:24:56;145474.03;;;6.07;64.65
26915;BME280;14480;52.608;13.416;2023-07-20T14:30:02;145444.03;;;5.95;64.51
26915;BME280;14480;52.608;13.416;2023-07-20T14:35:07;145425.22;;;5.87;64.63
26915;BME280;14480;52.608;13.416;2023-07-20T14:40:12;145475.28;;;6.07;64.97
26915;BME280;14480;52.608;13.416;2023-07-20T14:45:18;145481.53;;;6.10;64.76
26915;BME280;14480;52.608;13.416;2023-07-20T14:50:21;145521.56;;;6.26;67.51
26915;BME280;14480;52.608;13.416;2023-07-20T14:55:25;145549.09;;;6.37;64.42
26915;BME280;14480;52.608;13.416;2023-07-20T15:00:29;145580.34;;;6.50;64.65
26915;BME280;14480;52.608;13.416;2023-07-20T15:05:33;145624.09;;;6.68;63.48
26915;BME280;14480;52.608;13.416;2023-07-20T15:10:40;145666.66;;;6.85;61.77
26915;BME280;14480;52.608;13.416;2023-07-20T15:15:45;145731.72;;;7.12;60.39
26915;BME280;14480;52.608;13.416;2023-07-20T15:20:48;145697.94;;;6.98;58.25
26915;BME280;14480;52.608;13.416;2023-07-20T15:25:56;145621.59;;;6.67;59.96
26915;BME280;14480;52.608;13.416;2023-07-20T15:31:01;145726.72;;;7.10;59.75
26915;BME280;14480;52.608;13.416;2023-07-20T15:36:07;145739.19;;;7.15;59.72
26915;BME280;14480;52.608;13.416;2023-07-20T15:41:10;145734.22;;;7.13;57.79
26915;BME280;14480;52.608;13.416;2023-07-20T15:46:42;145659.13;;;6.82;59.28
26915;BME280;14480;52.608;13.416;2023-07-20T15:51:50;145350.25;;;5.56;65.35
26915;BME280;14480;52.608;13.416;2023-07-20T15:56:54;145304.00;;;5.38;67.59
26915;BME280;14480;52.608;13.416;2023-07-20T16:01:59;145254.00;;;5.17;67.86
26915;BME280;14480;52.608;13.416;2023-07-20T16:07:02;145221.53;;;5.04;66.67
26915;BME280;14480;52.608;13.416;2023-07-20T16:12:13;145107.84;;;4.58;67.50
26915;BME280;14480;52.608;13.416;2023-07-20T16:17:18;145175.28;;;4.85;65.80
26915;BME280;14480;52.608;13.416;2023-07-20T16:22:21;145134.06;;;4.68;65.83
26915;BME280;14480;52.608;13.416;2023-07-20T16:27:25;145109.09;;;4.58;66.84
26915;BME280;14480;52.608;13.416;2023-07-20T16:32:31;145007.97;;;4.17;69.26
26915;BME280;14480;52.608;13.416;2023-07-20T16:37:35;144961.78;;;3.98;70.99
26915;BME280;14480;52.608;13.416;2023-07-20T16:42:38;145040.44;;;4.30;71.77
26915;BME280;14480;52.608;13.416;2023-07-20T16:47:46;145086.59;;;4.49;71.97
26915;BME280;14480;52.608;13.416;2023-07-20T16:52:53;145105.34;;;4.57;74.09
26915;BME280;14480;52.608;13.416;2023-07-20T16:57:57;145099.13;;;4.54;74.53
26915;BME280;14480;52.608;13.416;2023-07-20T17:03:02;145124.09;;;4.64;73.35
26915;BME280;14480;52.608;13.416;2023-07-20T17:08:05;145117.81;;;4.62;71.82
26915;BME280;14480;52.608;13.416;2023-07-20T17:13:11;145001.72;;;4.15;73.36
26915;BME280;14480;52.608;13.416;2023-07-20T17:18:18;144929.34;;;3.85;72.46
26915;BME280;14480;52.608;13.416;2023-07-20T17:23:23;144873.16;;;3.62;73.03
26915;BME280;14480;52.608;13.416;2023-07-20T17:28:34;144819.50;;;3.40;74.35
26915;BME280;14480;52.608;13.416;2023-07-20T17:33:46;144814.53;;;3.38;73.80
26915;BME280;14480;52.608;13.416;2023-07-20T17:38:52;144755.91;;;3.14;73.30
26915;BME280;14480;52.608;13.416;2023-07-20T17:43:58;144748.38;;;3.11;72.54
26915;BME280;14480;52.608;13.416;2023-07-20T17:49:03;144732.19;;;3.05;72.92
26915;BME280;14480;52.608;13.416;2023-07-20T17:54:07;144717.19;;;2.99;74.44
26915;BME280;14480;52.608;13.416;2023-07-20T17:59:10;144696.03;;;2.90;74.84
26915;BME280;14480;52.608;13.416;2023-07-20T18:04:15;144683.53;;;2.85;75.47
26915;BME280;14480;52.608;13.416;2023-07-20T18:09:19;144653.59;;;2.73;75.63
26915;BME280;14480;52.608;13.416;2023-07-20T18:14:22;144604.97;;;2.53;76.75
26915;BME280;14480;52.608;13.416;2023-07-20T18:19:29;144566.34;;;2.37;77.77
26915;BME280;14480;52.608;13.416;2023-07-20T18:24:33;144515.22;;;2.16;79.40
26915;BME280;14480;52.608;13.416;2023-07-20T18:29:37;144472.88;;;1.99;80.62
26915;BME280;14480;52.608;13.416;2023-07-20T18:34:42;144410.53;;;1.73;81.64
26915;BME280;14480;52.608;13.416;2023-07-20T18:39:45;144404.31;;;1.71;82.85
26915;BME280;14480;52.608;13.416;2023-07-20T18:44:49;144370.69;;;1.57;83.26
26915;BME280;14480;52.608;13.416;2023-07-20T18:49:54;144330.84;;;1.41;84.63
26915;BME280;14480;52.608;13.416;2023-07-20T18:55:01;144297.16;;;1.27;85.83
26915;BME280;14480;52.608;13.416;2023-07-20T19:00:04;144284.72;;;1.22;86.93
26915;BME280;14480;52.608;13.416;2023-07-20T19:05:10;144266.03;;;1.14;88.30
26915;BME280;14480;52.608;13.416;2023-07-20T19:10:14;144257.34;;;1.11;89.01
26915;BME280;14480;52.608;13.416;2023-07-20T19:15:17;144256.09;;;1.10;89.12
26915;BME280;14480;52.608;13.416;2023-07-20T19:20:22;144247.38;;;1.07;90.08
26915;BME280;14480;52.608;13.416;2023-07-20T19:25:25;144244.91;;;1.06;91.24
26915;BME280;14480;52.608;13.416;2023-07-20T19:30:29;144210.00;;;0.92;91.99
26915;BME280;14480;52.608;13.416;2023-07-20T19:35:33;144188.88;;;0.83;92.80
26915;BME280;14480;52.608;13.416;2023-07-20T19:40:38;144153.97;;;0.69;94.36
26915;BME280;14480;52.608;13.416;2023-07-20T19:45:41;144097.97;;;0.46;97.30
26915;BME280;14480;52.608;13.416;2023-07-20T19:50:46;144046.97;;;0.25;100.00
26915;BME280;14480;52.608;13.416;2023-07-20T19:55:56;143995.94;;;0.04;100.00
26915;BME280;14480;52.608;13.416;2023-07-20T20:01:00;143953.63;;;-0.13;100.00
26915;BME280;14480;52.608;13.416;2023-07-20T20:06:08;143902.66;;;-0.34;100.00
26915;BME280;14480;52.608;13.416;2023-07-20T20:11:12;143865.31;;;-0.49;100.00
26915;BME280;14480;52.608;13.416;2023-07-20T20:16:20;143837.97;;;-0.61;100.00
26915;BME280;14480;52.608;13.416;2023-07-20T20:21:27;143796.94;;;-0.77;100.00
26915;BME280;14480;52.608;13.416;2023-07-20T20:26:32;143752.19;;;-0.96;100.00
26915;BME280;14480;52.608;13.416;2023-07-20T20:31:40;143716.13;;;-1.10;100.00
26915;BME280;14480;52.608;13.416;2023-07-20T20:36:45;143693.75;;;-1.20;100.00
26915;BME280;14480;52.608;13.416;2023-07-20T20:41:48;143691.28;;;-1.21;100.00
26915;BME280;14480;52.608;13.416;2023-07-20T20:46:54;143668.91;;;-1.30;100.00
26915;BME280;14480;52.608;13.416;2023-07-20T20:52:04;143650.28;;;-1.37;100.00
26915;BME280;14480;52.608;13.416;2023-07-20T20:57:07;143644.03;;;-1.40;100.00
26915;BME280;14480;52.608;13.416;2023-07-20T21:02:11;143626.66;;;-1.47;100.00
26915;BME280;14480;52.608;13.416;2023-07-20T21:07:20;143609.25;;;-1.54;100.00
26915;BME280;14480;52.608;13.416;2023-07-20T21:12:26;143604.28;;;-1.56;100.00
26915;BME280;14480;52.608;13.416;2023-07-20T21:17:30;143594.38;;;-1.60;100.00
26915;BME280;14480;52.608;13.416;2023-07-20T21:22:34;143578.19;;;-1.67;100.00
26915;BME280;14480;52.608;13.416;2023-07-20T21:27:39;143573.22;;;-1.69;100.00
26915;BME280;14480;52.608;13.416;2023-07-20T21:32:46;143559.53;;;-1.74;100.00
26915;BME280;14480;52.608;13.416;2023-07-20T21:37:54;143548.38;;;-1.79;100.00
